Time;durP1;ratioP1;P1;durP2;ratioP2;P2;SDS_P1;SDS_P2;PMS_P1;PMS_P2;Temp;Humidity;BMP_temperature;BMP_pressure;BME280_temperature;BME280_humidity;BME280_pressure;Samples;Min_cycle;Max_cycle;Signal;HPM_P1;HPM_P2
2024/03/14 00:01:06;;;;;;;12.43;9.82;;;;;;;;;;4998883;28;20030;-71
2024/03/14 00:03:32;;;;;;;15.77;9.13;;;;;;;;;;5002237;28;20094;-72
2024/03/14 00:05:58;;;;;;;11.63;9.32;;;;;;;;;;5001802;28;20472;-72
2024/03/14 00:08:24;;;;;;;15.60;10.45;;;;;;;;;;4982118;28;20566;-73
2024/03/14 00:10:52;;;;;;;14.50;12.10;;;;;;;;;;4997660;28;20025;-73
2024/03/14 00:13:18;;;;;;;15.50;11.30;;;;;;;;;;4999144;28;20041;-73
2024/03/14 00:15:45;;;;;;;16.42;11.10;;;;;;;;;;4997722;28;20428;-72
2024/03/14 00:18:11;;;;;;;14.05;9.57;;;;;;;;;;4999192;28;20038;-73
2024/03/14 00:20:42;;;;;;;13.90;9.70;;;;;;;;;;5005620;28;20048;-70
2024/03/14 00:23:09;;;;;;;14.50;10.02;;;;;;;;;;5000130;28;20018;-73
2024/03/14 00:25:35;;;;;;;13.93;10.30;;;;;;;;;;4998405;28;20460;-71
2024/03/14 00:28:01;;;;;;;11.88;9.10;;;;;;;;;;4981459;28;20372;-74
2024/03/14 00:30:27;;;;;;;16.00;10.75;;;;;;;;;;4996486;28;20523;-76
2024/03/14 00:32:53;;;;;;;13.48;9.88;;;;;;;;;;4997827;28;20044;-74
2024/03/14 00:35:21;;;;;;;12.50;9.48;;;;;;;;;;5003163;28;20080;-73
2024/03/14 00:37:48;;;;;;;17.63;10.15;;;;;;;;;;5005693;28;20030;-79
2024/03/14 00:40:14;;;;;;;14.27;10.70;;;;;;;;;;5015461;28;20023;-72
2024/03/14 00:42:45;;;;;;;15.60;11.48;;;;;;;;;;5003456;28;20028;-76
2024/03/14 00:45:12;;;;;;;14.70;11.23;;;;;;;;;;4998444;28;20053;-73
2024/03/14 00:47:39;;;;;;;14.63;10.45;;;;;;;;;;5019233;28;20026;-70
2024/03/14 00:50:12;;;;;;;13.85;11.02;;;;;;;;;;5016357;28;20018;-73
2024/03/14 00:52:40;;;;;;;13.75;9.98;;;;;;;;;;5026594;28;20038;-73
2024/03/14 00:55:09;;;;;;;15.23;9.30;;;;;;;;;;5027214;28;20464;-74
2024/03/14 00:57:35;;;;;;;13.88;10.13;;;;;;;;;;5024538;28;20026;-74
2024/03/14 01:00:10;;;;;;;11.55;9.48;;;;;;;;;;5018851;28;20025;-74
2024/03/14 01:02:36;;;;;;;15.30;10.75;;;;;;;;;;5017438;28;20062;-75
2024/03/14 01:05:02;;;;;;;14.80;10.25;;;;;;;;;;5012258;28;20029;-76
2024/03/14 01:07:29;;;;;;;10.70;8.98;;;;;;;;;;5017792;28;20054;-76
2024/03/14 01:09:55;;;;;;;14.63;10.32;;;;;;;;;;5003875;28;20057;-75
2024/03/14 01:12:21;;;;;;;12.85;9.80;;;;;;;;;;5011597;28;20061;-75
2024/03/14 01:14:47;;;;;;;13.48;11.10;;;;;;;;;;5027629;28;20021;-77
2024/03/14 01:17:13;;;;;;;14.73;12.65;;;;;;;;;;5002729;28;20048;-75
2024/03/14 01:19:40;;;;;;;13.15;9.35;;;;;;;;;;5028731;28;20022;-74
2024/03/14 01:22:07;;;;;;;16.05;10.23;;;;;;;;;;5027217;28;20049;-73
2024/03/14 01:24:33;;;;;;;12.25;9.60;;;;;;;;;;5025952;28;20034;-73
2024/03/14 01:26:59;;;;;;;14.00;9.73;;;;;;;;;;5026054;28;20018;-73
2024/03/14 01:29:25;;;;;;;12.43;9.30;;;;;;;;;;5023612;28;20043;-74
2024/03/14 01:31:51;;;;;;;12.68;9.20;;;;;;;;;;5025121;28;20434;-73
2024/03/14 01:34:18;;;;;;;13.82;10.35;;;;;;;;;;5021112;28;20087;-75
2024/03/14 01:36:44;;;;;;;14.55;9.80;;;;;;;;;;5023562;28;20036;-77
2024/03/14 01:39:11;;;;;;;14.52;9.32;;;;;;;;;;4998566;28;20033;-75
2024/03/14 01:41:37;;;;;;;12.55;9.40;;;;;;;;;;4989434;28;20103;-73
2024/03/14 01:44:04;;;;;;;12.20;9.85;;;;;;;;;;5002586;28;20030;-76
2024/03/14 01:46:31;;;;;;;13.63;10.30;;;;;;;;;;5028380;28;20506;-76
2024/03/14 01:48:58;;;;;;;13.80;9.05;;;;;;;;;;5012544;28;20022;-75
2024/03/14 01:51:24;;;;;;;13.18;9.55;;;;;;;;;;5026108;28;20030;-77
2024/03/14 01:53:51;;;;;;;15.30;13.45;;;;;;;;;;5028295;28;20045;-74
2024/03/14 01:56:18;;;;;;;16.00;10.52;;;;;;;;;;5014596;28;20064;-75
2024/03/14 01:58:45;;;;;;;13.77;9.80;;;;;;;;;;5015886;28;20481;-75
2024/03/14 02:01:12;;;;;;;17.85;12.40;;;;;;;;;;5009124;28;20400;-74
2024/03/14 02:03:38;;;;;;;16.85;11.70;;;;;;;;;;5020597;28;20490;-74
2024/03/14 02:06:22;;;;;;;15.57;10.23;;;;;;;;;;5003433;28;20025;-74
2024/03/14 02:08:48;;;;;;;15.25;10.07;;;;;;;;;;5010355;28;20022;-74
2024/03/14 02:11:15;;;;;;;21.10;12.23;;;;;;;;;;5011382;28;20025;-74
2024/03/14 02:13:41;;;;;;;13.88;10.00;;;;;;;;;;5008925;28;20038;-75
2024/03/14 02:16:07;;;;;;;14.40;10.02;;;;;;;;;;5020367;28;20033;-76
2024/03/14 02:18:34;;;;;;;12.13;8.57;;;;;;;;;;5022882;28;20033;-75
2024/03/14 02:21:00;;;;;;;18.65;10.82;;;;;;;;;;5022513;28;20148;-75
2024/03/14 02:23:26;;;;;;;15.27;11.77;;;;;;;;;;5009160;28;20038;-75
2024/03/14 02:25:54;;;;;;;14.88;10.45;;;;;;;;;;5008387;28;20030;-74
2024/03/14 02:28:22;;;;;;;15.05;10.50;;;;;;;;;;5008332;28;20029;-73
2024/03/14 02:30:48;;;;;;;17.35;11.27;;;;;;;;;;5008412;28;20030;-73
2024/03/14 02:33:14;;;;;;;16.00;10.02;;;;;;;;;;5007821;28;20038;-75
2024/03/14 02:35:40;;;;;;;13.70;9.63;;;;;;;;;;5008625;28;20054;-74
2024/03/14 02:38:07;;;;;;;15.88;8.80;;;;;;;;;;5008491;28;20068;-74
2024/03/14 02:40:34;;;;;;;15.98;10.80;;;;;;;;;;5012062;28;20372;-76
2024/03/14 02:43:00;;;;;;;13.00;9.55;;;;;;;;;;5011986;28;20448;-74
2024/03/14 02:45:26;;;;;;;14.60;10.13;;;;;;;;;;5011677;28;20030;-75
2024/03/14 02:47:52;;;;;;;13.70;9.68;;;;;;;;;;5011571;28;20022;-74
2024/03/14 02:50:19;;;;;;;16.23;10.50;;;;;;;;;;5011995;28;20336;-74
2024/03/14 02:52:47;;;;;;;16.70;10.23;;;;;;;;;;5011685;28;20030;-74
2024/03/14 02:55:13;;;;;;;12.00;9.38;;;;;;;;;;5011915;28;20022;-74
2024/03/14 02:57:40;;;;;;;15.98;9.43;;;;;;;;;;5011584;28;20026;-73
2024/03/14 03:00:15;;;;;;;14.10;10.02;;;;;;;;;;5011231;28;20076;-75
2024/03/14 03:02:41;;;;;;;29.17;20.90;;;;;;;;;;5011384;28;20075;-73
2024/03/14 03:05:08;;;;;;;15.20;11.15;;;;;;;;;;5011423;28;20034;-73
2024/03/14 03:07:34;;;;;;;15.10;12.95;;;;;;;;;;5011511;28;20030;-74
2024/03/14 03:10:00;;;;;;;12.25;9.77;;;;;;;;;;5011747;28;20022;-74
2024/03/14 03:12:26;;;;;;;13.00;9.95;;;;;;;;;;5011216;28;20057;-76
2024/03/14 03:14:53;;;;;;;13.77;9.73;;;;;;;;;;5011479;28;20030;-73
2024/03/14 03:17:19;;;;;;;18.67;10.82;;;;;;;;;;5011183;28;20033;-74
2024/03/14 03:19:45;;;;;;;15.60;9.80;;;;;;;;;;5010812;28;20105;-74
2024/03/14 03:22:12;;;;;;;12.63;9.30;;;;;;;;;;5011223;28;20029;-73
2024/03/14 03:24:38;;;;;;;16.55;10.73;;;;;;;;;;5010940;28;20109;-73
2024/03/14 03:27:08;;;;;;;50.97;45.40;;;;;;;;;;5010743;28;20033;-74
2024/03/14 03:29:34;;;;;;;13.93;10.65;;;;;;;;;;5010682;28;20100;-74
2024/03/14 03:32:00;;;;;;;17.45;14.80;;;;;;;;;;4998086;28;20064;-73
2024/03/14 03:34:27;;;;;;;18.00;14.02;;;;;;;;;;5010526;28;20431;-75
2024/03/14 03:36:54;;;;;;;17.45;11.27;;;;;;;;;;5011002;28;20388;-75
2024/03/14 03:39:20;;;;;;;13.60;10.43;;;;;;;;;;5010632;28;20037;-74
2024/03/14 03:41:46;;;;;;;14.32;9.90;;;;;;;;;;5010496;28;20022;-74
2024/03/14 03:44:13;;;;;;;14.13;10.57;;;;;;;;;;5010779;28;20353;-72
2024/03/14 03:46:45;;;;;;;14.65;9.95;;;;;;;;;;5010814;28;20033;-73
2024/03/14 03:49:11;;;;;;;14.75;10.75;;;;;;;;;;5010596;28;20518;-74
2024/03/14 03:51:37;;;;;;;13.30;9.77;;;;;;;;;;5010675;28;20029;-72
2024/03/14 03:54:04;;;;;;;15.90;11.93;;;;;;;;;;5010920;28;20061;-75
2024/03/14 03:56:30;;;;;;;15.00;10.73;;;;;;;;;;5010770;28;20037;-75
2024/03/14 03:58:58;;;;;;;19.58;14.90;;;;;;;;;;5010477;28;20030;-74
2024/03/14 04:01:27;;;;;;;12.73;9.23;;;;;;;;;;5010373;28;20793;-76
2024/03/14 04:03:53;;;;;;;23.77;21.40;;;;;;;;;;5009966;28;20022;-74
2024/03/14 04:06:19;;;;;;;18.33;16.33;;;;;;;;;;4992675;28;20106;-73
2024/03/14 04:08:45;;;;;;;16.30;10.73;;;;;;;;;;5010042;28;20029;-75
2024/03/14 04:11:15;;;;;;;15.85;10.50;;;;;;;;;;5010712;28;20022;-76
2024/03/14 04:13:41;;;;;;;15.30;10.30;;;;;;;;;;5010058;28;20033;-76
2024/03/14 04:16:07;;;;;;;13.93;9.38;;;;;;;;;;5010067;28;20018;-77
2024/03/14 04:18:35;;;;;;;21.08;11.38;;;;;;;;;;5010161;28;20021;-77
2024/03/14 04:21:02;;;;;;;14.85;10.60;;;;;;;;;;5010411;28;20072;-77
2024/03/14 04:23:29;;;;;;;15.30;10.52;;;;;;;;;;5009899;28;20022;-75
2024/03/14 04:25:56;;;;;;;17.25;9.68;;;;;;;;;;5009704;28;20084;-76
2024/03/14 04:28:25;;;;;;;18.00;10.40;;;;;;;;;;5009325;28;20113;-77
2024/03/14 04:30:52;;;;;;;14.82;10.75;;;;;;;;;;5009856;28;20054;-76
2024/03/14 04:33:18;;;;;;;27.88;14.23;;;;;;;;;;5009434;28;20082;-79
2024/03/14 04:35:48;;;;;;;15.80;11.05;;;;;;;;;;4992380;28;20392;-77
2024/03/14 04:38:14;;;;;;;14.88;10.88;;;;;;;;;;5009596;28;20105;-76
2024/03/14 04:40:40;;;;;;;18.98;14.68;;;;;;;;;;5009901;28;20049;-75
2024/03/14 04:43:09;;;;;;;17.98;14.73;;;;;;;;;;5009475;28;20089;-76
2024/03/14 04:45:35;;;;;;;17.38;10.38;;;;;;;;;;5009593;28;20022;-77
2024/03/14 04:48:04;;;;;;;15.85;11.45;;;;;;;;;;5009725;28;20025;-77
2024/03/14 04:50:30;;;;;;;16.63;10.52;;;;;;;;;;5009633;28;20376;-77
2024/03/14 04:52:57;;;;;;;16.10;11.20;;;;;;;;;;5009439;28;20119;-77
2024/03/14 04:55:23;;;;;;;22.45;12.40;;;;;;;;;;5009792;28;20069;-76
2024/03/14 04:57:49;;;;;;;16.55;11.98;;;;;;;;;;5009205;28;20022;-76
2024/03/14 05:00:25;;;;;;;16.45;13.40;;;;;;;;;;5009265;28;20108;-78
2024/03/14 05:02:55;;;;;;;17.42;11.73;;;;;;;;;;5008849;28;20432;-77
2024/03/14 05:05:21;;;;;;;14.95;11.15;;;;;;;;;;5009316;28;20018;-77
2024/03/14 05:07:48;;;;;;;16.83;10.88;;;;;;;;;;5008930;28;20010;-76
2024/03/14 05:10:17;;;;;;;15.90;13.00;;;;;;;;;;5009288;28;20032;-76
2024/03/14 05:12:44;;;;;;;20.42;12.70;;;;;;;;;;5009250;28;20108;-77
2024/03/14 05:15:10;;;;;;;18.27;12.90;;;;;;;;;;5007175;28;20057;-75
2024/03/14 05:17:36;;;;;;;17.05;12.95;;;;;;;;;;5017487;28;20022;-76
2024/03/14 05:20:05;;;;;;;16.77;10.80;;;;;;;;;;5012424;28;20417;-76
2024/03/14 05:22:34;;;;;;;19.95;12.70;;;;;;;;;;4999862;28;20014;-77
2024/03/14 05:25:06;;;;;;;20.02;12.73;;;;;;;;;;4996851;28;20137;-78
2024/03/14 05:27:32;;;;;;;20.02;12.35;;;;;;;;;;5009011;28;20022;-77
2024/03/14 05:29:58;;;;;;;17.80;13.45;;;;;;;;;;5001455;28;20100;-76
2024/03/14 05:32:27;;;;;;;19.52;11.68;;;;;;;;;;5004551;28;20032;-76
2024/03/14 05:34:54;;;;;;;18.60;13.25;;;;;;;;;;5009197;28;20041;-76
2024/03/14 05:37:24;;;;;;;18.70;12.40;;;;;;;;;;5008841;28;20361;-76
2024/03/14 05:39:50;;;;;;;20.23;12.40;;;;;;;;;;5008955;28;20033;-76
2024/03/14 05:42:18;;;;;;;19.20;12.50;;;;;;;;;;5008693;28;20030;-76
2024/03/14 05:44:50;;;;;;;20.02;12.70;;;;;;;;;;5008942;28;20423;-78
2024/03/14 05:47:16;;;;;;;17.60;13.67;;;;;;;;;;5008616;28;20026;-73
2024/03/14 05:49:43;;;;;;;21.00;11.93;;;;;;;;;;5009119;28;20254;-75
2024/03/14 05:52:10;;;;;;;23.75;16.95;;;;;;;;;;5008917;28;20022;-74
2024/03/14 05:54:36;;;;;;;26.42;19.02;;;;;;;;;;5008355;28;20033;-73
2024/03/14 05:57:03;;;;;;;34.58;25.17;;;;;;;;;;5009111;28;20376;-74
2024/03/14 05:59:29;;;;;;;49.17;31.35;;;;;;;;;;5008469;28;20021;-75
2024/03/14 06:01:56;;;;;;;102.75;44.53;;;;;;;;;;5008448;28;20022;-74
2024/03/14 06:04:22;;;;;;;136.65;69.35;;;;;;;;;;4990877;28;20478;-74
2024/03/14 06:06:49;;;;;;;92.30;56.78;;;;;;;;;;5008496;28;20105;-74
2024/03/14 06:09:15;;;;;;;79.20;49.55;;;;;;;;;;5008521;28;20030;-77
2024/03/14 06:11:42;;;;;;;90.57;53.83;;;;;;;;;;5008718;28;20048;-77
2024/03/14 06:14:09;;;;;;;80.20;32.45;;;;;;;;;;5010390;28;20029;-76
2024/03/14 06:16:35;;;;;;;64.63;37.95;;;;;;;;;;5012710;28;20018;-74
2024/03/14 06:19:01;;;;;;;42.17;26.25;;;;;;;;;;5012302;28;20042;-74
2024/03/14 06:21:28;;;;;;;27.70;19.17;;;;;;;;;;5012706;28;20364;-74
2024/03/14 06:23:55;;;;;;;25.90;18.25;;;;;;;;;;5012439;28;20025;-75
2024/03/14 06:26:21;;;;;;;21.17;14.93;;;;;;;;;;5012580;28;20487;-73
2024/03/14 06:28:48;;;;;;;20.73;14.85;;;;;;;;;;5011752;28;20041;-75
2024/03/14 06:31:17;;;;;;;26.20;17.55;;;;;;;;;;5012266;28;20484;-75
2024/03/14 06:33:43;;;;;;;45.25;26.10;;;;;;;;;;5012064;28;20126;-74
2024/03/14 06:36:09;;;;;;;36.13;20.08;;;;;;;;;;5012217;28;20045;-74
2024/03/14 06:38:35;;;;;;;33.83;22.95;;;;;;;;;;5011657;28;20025;-73
2024/03/14 06:41:03;;;;;;;25.02;16.25;;;;;;;;;;5012083;28;20026;-75
2024/03/14 06:43:29;;;;;;;54.22;32.83;;;;;;;;;;5011772;28;20134;-76
2024/03/14 06:45:56;;;;;;;90.40;65.47;;;;;;;;;;5012380;28;20029;-77
2024/03/14 06:48:22;;;;;;;22.30;16.42;;;;;;;;;;5000579;28;20036;-75
2024/03/14 06:50:48;;;;;;;48.83;35.65;;;;;;;;;;5012094;28;20029;-69
2024/03/14 06:53:16;;;;;;;24.05;17.40;;;;;;;;;;5011475;28;20049;-70
2024/03/14 06:55:43;;;;;;;22.98;14.77;;;;;;;;;;5011915;28;20022;-72
2024/03/14 06:58:09;;;;;;;40.80;26.75;;;;;;;;;;5011726;28;20022;-70
2024/03/14 07:00:35;;;;;;;32.83;25.90;;;;;;;;;;5010133;28;20037;-71
2024/03/14 07:03:02;;;;;;;35.55;23.88;;;;;;;;;;5011732;28;20026;-69
2024/03/14 07:05:28;;;;;;;28.40;22.58;;;;;;;;;;5011011;28;20026;-69
2024/03/14 07:07:54;;;;;;;31.70;23.67;;;;;;;;;;5011400;28;20117;-69
2024/03/14 07:10:21;;;;;;;22.10;16.08;;;;;;;;;;5011565;28;20088;-71
2024/03/14 07:12:47;;;;;;;17.98;13.60;;;;;;;;;;5010589;28;20018;-70
2024/03/14 07:15:14;;;;;;;29.80;15.20;;;;;;;;;;5010249;28;20088;-72
2024/03/14 07:17:40;;;;;;;22.80;15.25;;;;;;;;;;5021799;28;20096;-73
2024/03/14 07:20:09;;;;;;;19.05;13.30;;;;;;;;;;5011098;28;20049;-73
2024/03/14 07:22:37;;;;;;;55.60;34.25;;;;;;;;;;5010936;28;20033;-72
2024/03/14 07:25:05;;;;;;;44.65;28.60;;;;;;;;;;4992587;28;20109;-74
2024/03/14 07:27:31;;;;;;;103.07;60.67;;;;;;;;;;5011083;28;20658;-72
2024/03/14 07:29:59;;;;;;;39.33;24.92;;;;;;;;;;5004057;28;20528;-71
2024/03/14 07:32:26;;;;;;;26.52;17.67;;;;;;;;;;5010848;28;20033;-74
2024/03/14 07:34:52;;;;;;;37.65;26.73;;;;;;;;;;5010551;28;20029;-72
2024/03/14 07:37:23;;;;;;;35.80;22.95;;;;;;;;;;4993264;28;20070;-75
2024/03/14 07:39:49;;;;;;;171.18;89.65;;;;;;;;;;5010603;28;20064;-73
2024/03/14 07:42:17;;;;;;;29.38;19.73;;;;;;;;;;5010498;28;20018;-72
2024/03/14 07:44:45;;;;;;;23.10;15.48;;;;;;;;;;5002292;28;20484;-75
2024/03/14 07:47:23;;;;;;;37.72;23.90;;;;;;;;;;5022281;28;20044;-69
2024/03/14 07:49:55;;;;;;;32.10;21.48;;;;;;;;;;5013468;28;20025;-70
2024/03/14 07:52:21;;;;;;;53.42;33.92;;;;;;;;;;5030001;28;20029;-68
2024/03/14 07:54:47;;;;;;;42.38;27.60;;;;;;;;;;5028173;28;20029;-68
2024/03/14 07:57:14;;;;;;;28.75;18.48;;;;;;;;;;5029030;28;20105;-69
2024/03/14 07:59:41;;;;;;;36.67;24.23;;;;;;;;;;5027925;28;20045;-68
2024/03/14 08:02:07;;;;;;;61.90;36.75;;;;;;;;;;5026377;28;20080;-73
2024/03/14 08:04:34;;;;;;;25.27;17.88;;;;;;;;;;5028062;28;20056;-73
2024/03/14 08:07:10;;;;;;;36.47;24.30;;;;;;;;;;5024263;28;20022;-68
2024/03/14 08:09:37;;;;;;;119.63;84.72;;;;;;;;;;5026274;28;20549;-67
2024/03/14 08:12:04;;;;;;;26.13;19.63;;;384.70;2201.60;;;;;;5022468;28;20019;-71
2024/03/14 08:14:30;;;;;;;49.72;35.35;;;;;;;;;;5020133;28;20034;-69
2024/03/14 08:16:56;;;;;;;48.25;32.30;;;435.30;2073.60;;;;;;5010000;28;20025;-71
2024/03/14 08:19:23;;;;;;;58.03;38.88;;;486.40;1920.00;;;;;;5010232;28;20026;-72
2024/03/14 08:21:49;;;;;;;42.95;26.17;;;;;;;;;;5009981;28;20025;-70
2024/03/14 08:24:16;;;;;;;49.80;35.75;;;512.50;1792.00;;;;;;5009646;28;20033;-71
2024/03/14 08:26:45;;;;;;;91.40;45.05;;;487.30;1792.00;;;;;;5009918;28;20476;-68
2024/03/14 08:29:11;;;;;;;351.23;172.40;;;486.80;1817.60;;;;;;5019593;28;20500;-71
2024/03/14 08:31:37;;;;;;;71.07;51.38;;;487.00;1817.60;;;;;;5022869;28;20037;-68
2024/03/14 08:34:05;;;;;;;115.15;60.53;;;512.40;1740.80;;;;;;5009712;28;20038;-72
2024/03/14 08:36:32;;;;;;;73.88;49.08;;;512.40;1740.80;;;;;;5009094;28;20014;-69
2024/03/14 08:38:58;;;;;;;92.53;59.72;;;512.00;1766.40;;;;;;5009497;28;20606;-69
2024/03/14 08:41:23;;;;;;;43.67;30.42;;;487.30;1766.40;;;;;;5008894;28;20120;-68
2024/03/14 08:43:50;;;;;;;53.08;31.60;;;487.00;1792.00;;;;;;5009229;28;20045;-68
2024/03/14 08:46:16;;;;;;;83.93;58.78;;;486.70;1817.60;;;;;;5008813;28;20018;-68
2024/03/14 08:48:42;;;;;;;37.85;25.75;;;512.00;1766.40;;;;;;5009415;28;20790;-68
2024/03/14 08:51:09;;;;;;;77.22;41.80;;;486.80;1766.40;;;;;;5009210;28;20076;-69
2024/03/14 08:54:08;;;;;;;104.68;51.78;;;486.70;1817.60;;;;;;5008880;28;20042;-68
2024/03/14 08:56:24;;;;;;;39.30;28.30;;;512.40;1740.80;;;;;;5007136;28;20060;-68
2024/03/14 08:58:56;;;;;;;40.35;27.85;;;538.30;1664.00;;;;;;5009300;28;20480;-68
2024/03/14 09:01:24;;;;;;;86.38;49.47;;;563.90;1664.00;;;;;;5009236;28;20032;-69
2024/03/14 09:03:51;;;;;;;24.85;21.65;;;588.90;1587.20;;;;;;5008597;28;20038;-70
2024/03/14 09:06:17;;;;;;;18.05;14.65;;;538.50;1587.20;;;;;;5008936;28;20485;-69
2024/03/14 09:08:43;;;;;;;42.25;26.33;;;538.30;1587.20;;;;;;5008829;28;20088;-69
2024/03/14 09:11:10;;;;;;;30.65;20.85;;;563.20;1612.80;;;;;;5011100;28;20483;-69
2024/03/14 09:13:36;;;;;;;49.42;31.92;;;563.20;1612.80;;;;;;5009117;28;20034;-71
2024/03/14 09:16:04;;;;;;;43.13;27.85;;;537.60;1587.20;;;;;;4998059;28;20381;-70
2024/03/14 09:18:31;;;;;;;119.03;79.13;;;512.30;1612.80;;;;;;5009604;28;20026;-72
2024/03/14 09:20:58;;;;;;;123.00;82.32;;;512.00;1612.80;;;;;;5014276;28;20027;-73
2024/03/14 09:23:29;;;;;;;31.33;21.48;;;487.00;1638.40;;;;;;5009108;28;20057;-69
2024/03/14 09:25:57;;;;;;;32.08;22.38;;;486.80;1689.60;;;;;;5008272;28;20995;-67
2024/03/14 09:28:26;;;;;;;23.30;17.85;;;486.60;1664.00;;;;;;5008787;28;20049;-67
2024/03/14 09:30:57;;;;;;;24.17;16.95;;;461.70;1664.00;;;;;;5008507;28;20038;-69
2024/03/14 09:33:27;;;;;;;40.40;27.13;;;461.70;1689.60;;;;;;5008583;28;20810;-68
2024/03/14 09:35:52;;;;;;;32.33;19.17;;;461.70;1689.60;;;;;;5005552;28;20018;-70
2024/03/14 09:38:19;;;;;;;20.52;12.77;;;;;;;;;;5000904;28;20053;-68
2024/03/14 09:40:44;;;;;;;121.97;61.28;;;461.50;1689.60;;;;;;5015478;28;20026;-69
2024/03/14 09:43:14;;;;;;;28.90;19.23;;;461.10;1689.60;;;;;;5008517;28;20068;-70
2024/03/14 09:45:44;;;;;;;18.38;13.63;;;461.10;1689.60;;;;;;5004982;28;20014;-75
2024/03/14 09:48:10;;;;;;;24.75;17.55;;;;;;;;;;5010979;28;20038;-69
2024/03/14 09:50:38;;;;;;;39.72;23.08;;;;;;;;;;5011865;28;20057;-68
2024/03/14 09:53:04;;;;;;;31.13;19.92;;;460.90;1715.20;;;;;;5025561;28;20040;-68
2024/03/14 09:55:32;;;;;;;30.13;21.85;;;436.00;1715.20;;;;;;5017241;28;20026;-71
2024/03/14 09:57:59;;;;;;;22.23;16.30;;;435.60;1740.80;;;;;;5022860;28;20034;-68
2024/03/14 10:00:26;;;;;;;25.17;18.33;;;435.20;1766.40;;;;;;4999402;28;20040;-67
2024/03/14 10:03:00;;;;;;;18.38;12.50;;;410.30;1792.00;;;;;;5012614;28;20042;-68
2024/03/14 10:05:27;;;;;;;17.55;11.80;;;;;;;;;;5000572;28;20021;-73
2024/03/14 10:07:55;;;;;;;18.75;13.60;;;;;;;;;;5010878;28;20057;-68
2024/03/14 10:10:23;;;;;;;16.55;11.55;;;;;;;;;;5016667;28;20049;-67
2024/03/14 10:12:53;;;;;;;39.28;23.45;;;435.90;1766.40;;;;;;5011967;28;20057;-67
2024/03/14 10:15:22;;;;;;;17.45;11.88;;;435.90;1766.40;;;;;;5011973;28;20022;-67
2024/03/14 10:17:48;;;;;;;20.17;15.65;;;436.10;1740.80;;;;;;5011991;28;20028;-68
2024/03/14 10:20:14;;;;;;;23.75;16.02;;;460.90;1766.40;;;;;;5011860;28;20029;-67
2024/03/14 10:22:43;;;;;;;22.48;14.15;;;461.00;1740.80;;;;;;5011662;28;20029;-66
2024/03/14 10:25:23;;;;;;;16.08;11.57;;;461.10;1740.80;;;;;;5011683;28;20080;-67
2024/03/14 10:27:51;;;;;;;25.33;15.05;;;461.10;1715.20;;;;;;5012004;28;20029;-69
2024/03/14 10:30:18;;;;;;;22.40;15.32;;;461.40;1689.60;;;;;;5011598;28;20045;-68
2024/03/14 10:32:47;;;;;;;18.00;11.35;;;;;;;;;;5011943;28;20483;-72
2024/03/14 10:35:19;;;;;;;15.95;12.23;;;;;;;;;;5011749;28;20038;-73
2024/03/14 10:37:47;;;;;;;18.80;12.30;;;;;;;;;;4999223;28;20026;-69
2024/03/14 10:40:29;;;;;;;20.65;13.20;;;;;;;;;;5011438;28;20026;-68
2024/03/14 10:42:56;;;;;;;25.77;16.52;;;;;;;;;;5011520;28;20028;-69
2024/03/14 10:45:23;;;;;;;28.77;17.77;;;;;;;;;;5011210;28;20097;-68
2024/03/14 10:47:54;;;;;;;21.67;13.85;;;;;;;;;;5011555;28;20061;-67
2024/03/14 10:50:21;;;;;;;29.65;19.83;;;;;;;;;;5011402;28;20022;-71
2024/03/14 10:52:50;;;;;;;41.95;28.10;;;;;;;;;;5011347;28;20037;-68
2024/03/14 10:55:23;;;;;;;66.60;34.50;;;;;;;;;;5011143;28;20026;-66
2024/03/14 10:57:50;;;;;;;31.95;17.63;;;;;;;;;;5011118;28;20068;-69
2024/03/14 11:00:18;;;;;;;13.65;10.45;;;;;;;;;;5010483;28;20480;-67
2024/03/14 11:02:47;;;;;;;19.25;12.77;;;;;;;;;;5011077;28;20026;-70
2024/03/14 11:05:17;;;;;;;18.80;11.77;;;;;;;;;;5011030;28;20109;-68
2024/03/14 11:07:45;;;;;;;18.80;12.38;;;;;;;;;;5011285;28;20018;-67
2024/03/14 11:10:24;;;;;;;16.73;11.65;;;;;;;;;;5011257;28;20041;-68
2024/03/14 11:12:54;;;;;;;12.98;10.48;;;;;;;;;;5010886;28;20230;-69
2024/03/14 11:15:22;;;;;;;16.98;11.35;;;;;;;;;;5010902;28;20112;-67
2024/03/14 11:17:51;;;;;;;23.15;16.50;;;;;;;;;;5010782;28;20025;-67
2024/03/14 11:20:25;;;;;;;12.35;10.00;;;;;;;;;;5010530;28;20018;-68
2024/03/14 11:22:54;;;;;;;22.98;15.35;;;;;;;;;;5005864;28;20022;-70
2024/03/14 11:25:22;;;;;;;17.27;11.98;;;;;;;;;;5010887;28;20033;-66
2024/03/14 11:27:49;;;;;;;15.65;11.52;;;;;;;;;;5010491;28;20464;-69
2024/03/14 11:30:16;;;;;;;30.00;22.42;;;;;;;;;;5010618;28;20054;-73
2024/03/14 11:32:55;;;;;;;15.85;10.27;;;;;;;;;;5010486;28;20033;-69
2024/03/14 11:35:38;;;;;;;25.15;14.25;;;;;;;;;;5010224;28;20077;-68
2024/03/14 11:38:24;;;;;;;23.55;16.40;;;;;;;;;;5011070;28;20030;-70
2024/03/14 11:40:53;;;;;;;23.80;16.60;;;;;;;;;;5010186;28;20034;-67
2024/03/14 11:43:23;;;;;;;14.52;11.20;;;;;;;;;;5010489;28;20147;-68
2024/03/14 11:46:00;;;;;;;29.40;16.85;;;;;;;;;;5010949;28;20105;-71
2024/03/14 11:48:28;;;;;;;27.73;21.08;;;;;;;;;;5010185;28;20034;-69
2024/03/14 11:50:56;;;;;;;46.30;28.58;;;;;;;;;;5010168;28;20661;-69
2024/03/14 11:53:22;;;;;;;16.52;12.55;;;;;;;;;;5010430;28;20087;-72
2024/03/14 11:55:52;;;;;;;52.85;30.42;;;;;;;;;;5009789;28;20022;-70
2024/03/14 11:58:20;;;;;;;12.75;10.10;;;;;;;;;;5010184;28;20036;-68
2024/03/14 12:00:47;;;;;;;16.98;11.77;;;;;;;;;;5009860;28;20494;-73
2024/03/14 12:03:18;;;;;;;16.85;9.75;;;;;;;;;;5010552;28;20369;-69
2024/03/14 12:05:52;;;;;;;14.65;11.20;;;;;;;;;;5009511;28;20026;-72
2024/03/14 12:08:18;;;;;;;39.95;28.35;;;;;;;;;;5010227;28;20113;-73
2024/03/14 12:10:45;;;;;;;34.17;23.15;;;;;;;;;;5009322;28;20064;-68
2024/03/14 12:13:13;;;;;;;15.85;11.00;;;;;;;;;;5010231;28;20385;-68
2024/03/14 12:15:39;;;;;;;20.40;13.80;;;;;;;;;;5009747;28;20014;-70
2024/03/14 12:18:06;;;;;;;28.75;14.73;;;;;;;;;;5009746;28;20083;-69
2024/03/14 12:20:32;;;;;;;14.98;11.55;;;;;;;;;;5010000;28;20060;-71
2024/03/14 12:22:59;;;;;;;15.88;11.20;;;;;;;;;;5009734;28;20022;-69
2024/03/14 12:25:26;;;;;;;14.35;11.40;;;;;;;;;;5008932;28;20030;-72
2024/03/14 12:27:52;;;;;;;14.32;9.15;;;;;;;;;;5010312;28;20344;-71
2024/03/14 12:30:20;;;;;;;17.80;9.93;;;435.70;1664.00;;;;;;5008260;28;20048;-69
2024/03/14 12:32:56;;;;;;;15.43;10.88;;;435.60;1715.20;;;;;;4999261;28;20069;-70
2024/03/14 12:35:23;;;;;;;14.98;10.30;;;435.50;1689.60;;;;;;5003245;28;20044;-70
2024/03/14 12:37:49;;;;;;;15.95;10.77;;;435.30;1715.20;;;;;;4993503;28;20032;-68
2024/03/14 12:40:19;;;;;;;40.47;26.45;;;435.20;1740.80;;;;;;4998947;28;20505;-69
2024/03/14 12:42:53;;;;;;;46.03;34.50;;;435.20;1740.80;;;;;;4992272;28;20041;-74
2024/03/14 12:45:20;;;;;;;27.13;13.77;;;410.50;1740.80;;;;;;4991881;28;20041;-68
2024/03/14 12:47:48;;;;;;;24.83;15.10;;;410.50;1740.80;;;;;;4997207;28;20110;-71
2024/03/14 12:50:25;;;;;;;22.85;16.70;;;435.20;1766.40;;;;;;4992017;28;20038;-71
2024/03/14 12:53:05;;;;;;;29.60;19.52;;;435.30;1740.80;;;;;;5008593;28;20032;-69
2024/03/14 12:55:32;;;;;;;15.95;11.75;;;435.20;1740.80;;;;;;5009535;28;20030;-72
2024/03/14 12:58:00;;;;;;;17.77;10.38;;;410.50;1740.80;;;;;;5009224;28;20100;-69
2024/03/14 13:00:31;;;;;;;12.30;7.43;;;410.50;1740.80;;;;;;5008728;28;20112;-74
2024/03/14 13:02:58;;;;;;;8.65;7.22;;;410.20;1766.40;;;;;;5009047;28;20500;-68
2024/03/14 13:05:25;;;;;;;45.35;26.50;;;410.30;1792.00;;;;;;5009436;28;20471;-71
2024/03/14 13:08:13;;;;;;;18.48;12.02;;;410.20;1766.40;;;;;;5008759;28;20022;-70
2024/03/14 13:10:40;;;;;;;32.83;22.45;;;410.10;1766.40;;;;;;5008620;28;20041;-71
2024/03/14 13:13:11;;;;;;;23.88;17.25;;;410.10;1766.40;;;;;;5008926;28;20057;-73
2024/03/14 13:15:40;;;;;;;30.25;21.60;;;410.20;1766.40;;;;;;5008550;28;20067;-67
2024/03/14 13:18:21;;;;;;;41.83;28.42;;;410.10;1766.40;;;;;;5008883;28;20029;-71
2024/03/14 13:20:57;;;;;;;35.17;18.63;;;410.10;1766.40;;;;;;5008746;28;20096;-73
2024/03/14 13:23:26;;;;;;;48.05;27.30;;;410.00;1766.40;;;;;;5008653;28;20101;-68
2024/03/14 13:25:52;;;;;;;38.72;19.23;;;409.90;1766.40;;;;;;5015808;28;20026;-71
2024/03/14 13:28:18;;;;;;;62.38;32.55;;;409.90;1792.00;;;;;;5008191;28;20383;-67
2024/03/14 13:30:45;;;;;;;36.75;25.45;;;409.90;1792.00;;;;;;5008731;28;20030;-68
2024/03/14 13:33:12;;;;;;;26.77;18.08;;;409.70;1792.00;;;;;;5008450;28;20042;-67
2024/03/14 13:35:40;;;;;;;23.42;16.25;;;409.70;1792.00;;;;;;5008922;28;20041;-69
2024/03/14 13:38:10;;;;;;;31.15;19.88;;;409.60;1766.40;;;;;;5008677;28;20030;-68
2024/03/14 13:40:36;;;;;;;36.00;19.45;;;409.60;1792.00;;;;;;5008461;28;20022;-68
2024/03/14 13:43:06;;;;;;;32.10;20.33;;;384.90;1766.40;;;;;;5008457;28;20517;-71
2024/03/14 13:45:44;;;;;;;42.13;20.65;;;409.60;1792.00;;;;;;5008591;28;20037;-69